Time;durP1;ratioP1;P1;durP2;ratioP2;P2;SDS_P1;SDS_P2;PMS_P1;PMS_P2;Temp;Humidity;BMP_temperature;BMP_pressure;BME280_temperature;BME280_humidity;BME280_pressure;Samples;Min_cycle;Max_cycle;Signal;HPM_P1;HPM_P2
2022/08/24 00:01:51;;;;;;;4.32;1.05;;;;;;;;;;5007208;28;20026;-83
2022/08/24 00:04:16;;;;;;;1.65;0.98;;;;;;;;;;5007009;28;20029;-84
2022/08/24 00:06:42;;;;;;;3.22;0.90;;;;;;;;;;5006492;28;20050;-83
2022/08/24 00:09:07;;;;;;;1.95;0.90;;;;;;;;;;5006997;28;20018;-84
2022/08/24 00:11:33;;;;;;;6.15;1.00;;;;;;;;;;5006762;28;20491;-83
2022/08/24 00:13:59;;;;;;;2.47;1.00;;;;;;;;;;5006733;28;20022;-82
2022/08/24 00:16:24;;;;;;;3.35;1.13;;;;;;;;;;5006927;28;20026;-82
2022/08/24 00:18:50;;;;;;;5.07;1.10;;;;;;;;;;5006861;28;20026;-82
2022/08/24 00:21:15;;;;;;;1.63;0.90;;;;;;;;;;5007020;28;20087;-80
2022/08/24 00:23:41;;;;;;;1.73;1.02;;;;;;;;;;5006521;28;20022;-83
2022/08/24 00:26:07;;;;;;;1.50;0.90;;;;;;;;;;5006789;28;20454;-84
2022/08/24 00:28:34;;;;;;;2.40;0.80;;;;;;;;;;5006552;28;20433;-83
2022/08/24 00:31:00;;;;;;;2.72;0.80;;;;;;;;;;5006608;28;20030;-82
2022/08/24 00:33:25;;;;;;;2.38;1.00;;;;;;;;;;5006423;28;20052;-83
2022/08/24 00:35:51;;;;;;;2.30;1.10;;;;;;;;;;5006781;28;20022;-83
2022/08/24 00:38:16;;;;;;;3.25;0.90;;;;;;;;;;5006405;28;20049;-83
2022/08/24 00:40:45;;;;;;;4.57;1.00;;;;;;;;;;5006621;28;20062;-83
2022/08/24 00:43:10;;;;;;;1.83;1.00;;;;;;;;;;5009290;28;20496;-83
2022/08/24 00:45:54;;;;;;;1.55;0.80;;;;;;;;;;5010087;28;20030;-82
2022/08/24 00:48:26;;;;;;;2.50;0.90;;;;;;;;;;5009954;28;20098;-84
2022/08/24 00:50:59;;;;;;;2.53;0.98;;;;;;;;;;5009951;28;20381;-81
2022/08/24 00:53:31;;;;;;;1.67;1.00;;;;;;;;;;5009435;28;20026;-83
2022/08/24 00:56:00;;;;;;;2.28;0.90;;;;;;;;;;5010177;28;20080;-83
2022/08/24 00:58:34;;;;;;;2.63;1.10;;;;;;;;;;4992433;28;20065;-82
2022/08/24 01:01:02;;;;;;;3.90;0.98;;;;;;;;;;5010113;28;20386;-82
2022/08/24 01:03:29;;;;;;;1.50;0.90;;;;;;;;;;5009559;28;20525;-81
2022/08/24 01:05:55;;;;;;;1.67;1.02;;;;;;;;;;5009565;28;20052;-81
2022/08/24 01:08:22;;;;;;;3.70;1.10;;;;;;;;;;5009486;28;20050;-81
2022/08/24 01:10:51;;;;;;;2.30;1.00;;;;;;;;;;5009907;28;20052;-82
2022/08/24 01:13:17;;;;;;;2.13;1.10;;;;;;;;;;5009702;28;20025;-81
2022/08/24 01:15:50;;;;;;;4.43;1.10;;;;;;;;;;5009795;28;20026;-81
2022/08/24 01:21:03;;;;;;;1.75;1.10;;;;;;;;;;5009866;28;20107;-82
2022/08/24 01:23:39;;;;;;;1.90;0.98;;;;;;;;;;5009031;28;20041;-82
2022/08/24 01:26:06;;;;;;;2.00;1.10;;;;;;;;;;5009502;28;20443;-82
2022/08/24 01:28:33;;;;;;;3.08;1.20;;;;;;;;;;5009347;28;20032;-83
2022/08/24 01:30:58;;;;;;;5.47;1.30;;;;;;;;;;5009547;28;20028;-82
2022/08/24 01:33:30;;;;;;;3.83;1.38;;;;;;;;;;4991605;28;20120;-82
2022/08/24 01:36:03;;;;;;;3.45;1.38;;;;;;;;;;5009499;28;20136;-82
2022/08/24 01:38:29;;;;;;;2.63;1.33;;;;;;;;;;5008887;28;20485;-83
2022/08/24 01:40:59;;;;;;;3.60;1.38;;;;;;;;;;5009163;28;20026;-80
2022/08/24 01:43:25;;;;;;;;;;;;;;;;;;5009450;28;20030;-82
2022/08/24 01:45:50;;;;;;;3.03;1.30;;;;;;;;;;5009327;28;19974;-83
2022/08/24 01:48:16;;;;;;;3.45;1.58;;;;;;;;;;5009336;28;20029;-82
2022/08/24 01:50:42;;;;;;;2.25;1.30;;;;;;;;;;5009182;28;20117;-82
2022/08/24 01:53:08;;;;;;;4.45;1.30;;;;;;;;;;5007595;28;20128;-80
2022/08/24 01:55:35;;;;;;;3.45;1.20;;;;;;;;;;5008948;28;20057;-77
2022/08/24 01:58:01;;;;;;;2.65;1.20;;;;;;;;;;5008889;28;20221;-79
2022/08/24 02:00:28;;;;;;;3.08;1.10;;;;;;;;;;5008943;28;20087;-78
2022/08/24 02:02:55;;;;;;;3.38;1.20;;;;;;;;;;5008923;28;20064;-77
2022/08/24 02:05:22;;;;;;;2.38;1.27;;;;;;;;;;5008777;28;20057;-80
2022/08/24 02:07:48;;;;;;;3.45;1.38;;;;;;;;;;5008566;28;20022;-81
2022/08/24 02:10:14;;;;;;;3.17;1.20;;;;;;;;;;5008805;28;20033;-81
2022/08/24 02:12:42;;;;;;;3.22;1.20;;;;;;;;;;5008697;28;20079;-81
2022/08/24 02:15:09;;;;;;;4.93;1.15;;;;;;;;;;5008533;28;20117;-81
2022/08/24 02:17:36;;;;;;;2.20;1.20;;;;;;;;;;5008639;28;20033;-81
2022/08/24 02:20:04;;;;;;;2.70;1.40;;;;;;;;;;5008745;28;20034;-80
2022/08/24 02:22:29;;;;;;;3.58;1.20;;;;;;;;;;5008309;28;20048;-81
2022/08/24 02:24:54;;;;;;;2.42;1.20;;;;;;;;;;4990940;28;20054;-81
2022/08/24 02:27:20;;;;;;;2.72;1.15;;;;;;;;;;5008643;28;20477;-82
2022/08/24 02:29:45;;;;;;;1.88;1.10;;;;;;;;;;4990774;28;20065;-81
2022/08/24 02:32:11;;;;;;;2.35;1.10;;;;;;;;;;5008428;28;20022;-82
2022/08/24 02:34:37;;;;;;;2.00;1.13;;;;;;;;;;4990548;28;20481;-81
2022/08/24 02:37:03;;;;;;;2.22;1.05;;;;;;;;;;5008132;28;20036;-80
2022/08/24 02:39:30;;;;;;;2.00;1.20;;;;;;;;;;5008521;28;20109;-80
2022/08/24 02:41:56;;;;;;;1.98;1.05;;;;;;;;;;5008437;28;20054;-82
2022/08/24 02:44:22;;;;;;;2.80;1.20;;;;;;;;;;5008275;28;20057;-81
2022/08/24 02:46:47;;;;;;;5.30;1.30;;;;;;;;;;5008321;28;20025;-82
2022/08/24 02:49:13;;;;;;;2.65;1.00;;;;;;;;;;5008193;28;20083;-81
2022/08/24 02:51:41;;;;;;;3.03;1.20;;;;;;;;;;5007793;28;20029;-78
2022/08/24 02:54:08;;;;;;;2.15;1.00;;;;;;;;;;5007973;28;20114;-81
2022/08/24 02:56:33;;;;;;;2.67;1.00;;;;;;;;;;5008295;28;20109;-81
2022/08/24 02:59:00;;;;;;;4.07;1.27;;;;;;;;;;5008341;28;20426;-81
2022/08/24 03:01:26;;;;;;;2.15;1.20;;;;;;;;;;5008211;28;20504;-82
2022/08/24 03:03:53;;;;;;;3.22;1.10;;;;;;;;;;5007945;28;20103;-82
2022/08/24 03:06:18;;;;;;;5.28;1.15;;;;;;;;;;5007348;28;20490;-81
2022/08/24 03:08:45;;;;;;;1.63;1.00;;;;;;;;;;5007362;28;20029;-81
2022/08/24 03:11:11;;;;;;;2.47;1.20;;;;;;;;;;4990243;28;20560;-82
2022/08/24 03:13:38;;;;;;;1.95;1.20;;;;;;;;;;5007641;28;20432;-82
2022/08/24 03:16:04;;;;;;;4.55;1.30;;;;;;;;;;5007944;28;20022;-81
2022/08/24 03:18:30;;;;;;;3.95;1.45;;;;;;;;;;5007914;28;20026;-80
2022/08/24 03:20:57;;;;;;;4.32;1.40;;;;;;;;;;5007841;28;20030;-81
2022/08/24 03:23:23;;;;;;;3.78;1.40;;;;;;;;;;5007215;28;20026;-80
2022/08/24 03:25:50;;;;;;;3.50;1.30;;;;;;;;;;5007629;28;20045;-81
2022/08/24 03:28:17;;;;;;;2.20;1.27;;;;;;;;;;5007731;28;20596;-80
2022/08/24 03:30:44;;;;;;;2.53;1.20;;;;;;;;;;5007541;28;20021;-81
2022/08/24 03:33:13;;;;;;;2.70;1.40;;;;;;;;;;5007698;28;20053;-77
2022/08/24 03:35:38;;;;;;;3.17;1.20;;;;;;;;;;5007432;28;20538;-81
2022/08/24 03:38:04;;;;;;;2.75;1.23;;;;;;;;;;5007153;28;20033;-80
2022/08/24 03:40:32;;;;;;;3.30;1.10;;;;;;;;;;5007436;28;20030;-81
2022/08/24 03:42:58;;;;;;;1.38;1.00;;;;;;;;;;5007284;28;20038;-82
2022/08/24 03:45:24;;;;;;;2.35;1.30;;;;;;;;;;5007080;28;20034;-81
2022/08/24 03:47:50;;;;;;;4.30;1.27;;;;;;;;;;5007452;28;20034;-81
2022/08/24 03:50:17;;;;;;;3.47;1.27;;;;;;;;;;5007415;28;20083;-82
2022/08/24 03:52:42;;;;;;;1.90;1.20;;;;;;;;;;5006808;28;20045;-76
2022/08/24 03:55:09;;;;;;;3.05;1.10;;;;;;;;;;5007242;28;20022;-83
2022/08/24 03:57:34;;;;;;;2.60;1.08;;;;;;;;;;5007234;28;20033;-81
2022/08/24 04:00:02;;;;;;;2.20;1.08;;;;;;;;;;5007122;28;20397;-77
2022/08/24 04:02:27;;;;;;;3.22;1.10;;;;;;;;;;5007142;28;20026;-81
2022/08/24 04:04:52;;;;;;;1.70;1.10;;;;;;;;;;5006747;28;20046;-81
2022/08/24 04:07:18;;;;;;;3.92;1.00;;;;;;;;;;5006737;28;20026;-81
2022/08/24 04:09:44;;;;;;;1.95;1.02;;;;;;;;;;5007097;28;20079;-81
2022/08/24 04:12:09;;;;;;;2.40;1.02;;;;;;;;;;5007185;28;20033;-81
2022/08/24 04:14:35;;;;;;;2.55;1.15;;;;;;;;;;5006781;28;20367;-81
2022/08/24 04:17:00;;;;;;;3.85;0.90;;;;;;;;;;5005819;28;20489;-80
2022/08/24 04:19:26;;;;;;;3.08;1.20;;;;;;;;;;5006768;28;20113;-81
2022/08/24 04:21:52;;;;;;;1.90;1.10;;;;;;;;;;5006603;28;20048;-81
2022/08/24 04:24:19;;;;;;;2.50;1.10;;;;;;;;;;5006860;28;20026;-81
2022/08/24 04:26:44;;;;;;;4.07;1.17;;;;;;;;;;5006959;28;20025;-80
2022/08/24 04:29:11;;;;;;;3.92;1.00;;;;;;;;;;5006980;28;20026;-81
2022/08/24 04:31:38;;;;;;;2.40;1.10;;;;;;;;;;5006806;28;20036;-80
2022/08/24 04:34:05;;;;;;;2.80;1.27;;;;;;;;;;5006491;28;20121;-80
2022/08/24 04:36:31;;;;;;;3.58;1.10;;;;;;;;;;5006382;28;20026;-81
2022/08/24 04:38:57;;;;;;;2.42;1.10;;;;;;;;;;5006808;28;20641;-84
2022/08/24 04:41:22;;;;;;;5.55;1.00;;;;;;;;;;5006616;28;20447;-83
2022/08/24 04:43:49;;;;;;;2.60;1.08;;;;;;;;;;5006673;28;20034;-81
2022/08/24 04:46:17;;;;;;;2.72;0.98;;;;;;;;;;5006577;28;20026;-79
2022/08/24 04:48:44;;;;;;;2.53;1.20;;;;;;;;;;5006556;28;20391;-81
2022/08/24 04:51:12;;;;;;;2.60;1.05;;;;;;;;;;4988811;28;20462;-80
2022/08/24 04:53:38;;;;;;;3.53;1.08;;;;;;;;;;5006154;28;20101;-82
2022/08/24 04:56:10;;;;;;;3.70;1.13;;;;;;;;;;5006473;28;20106;-78
2022/08/24 04:58:35;;;;;;;1.75;1.00;;;;;;;;;;4988951;28;20075;-82
2022/08/24 05:01:06;;;;;;;2.25;1.00;;;;;;;;;;5006499;28;20025;-82
2022/08/24 05:03:31;;;;;;;2.70;1.20;;;;;;;;;;5006570;28;20022;-83
2022/08/24 05:05:57;;;;;;;3.58;1.10;;;;;;;;;;4988601;28;20050;-82
2022/08/24 05:08:22;;;;;;;2.15;1.00;;;;;;;;;;4988372;28;20088;-82
2022/08/24 05:10:50;;;;;;;3.20;1.17;;;;;;;;;;5006237;28;20033;-83
2022/08/24 05:13:16;;;;;;;2.95;1.25;;;;;;;;;;5006274;28;20485;-82
2022/08/24 05:15:47;;;;;;;2.35;1.20;;;;;;;;;;4988524;28;20033;-82
2022/08/24 05:18:13;;;;;;;;;;;;;;;;;;5006779;28;20113;-81
2022/08/24 05:20:40;;;;;;;4.05;1.42;;;;;;;;;;5006506;28;20395;-81
2022/08/24 05:23:06;;;;;;;3.17;1.48;;;;;;;;;;5005767;28;20053;-82
2022/08/24 05:25:31;;;;;;;5.85;1.50;;;;;;;;;;5005776;28;20064;-81
2022/08/24 05:27:57;;;;;;;6.38;1.70;;;;;;;;;;5007115;28;20419;-80
2022/08/24 05:30:22;;;;;;;3.85;1.50;;;;;;;;;;5009283;28;20022;-81
2022/08/24 05:32:48;;;;;;;2.13;1.30;;;;;;;;;;5009473;28;20062;-82
2022/08/24 05:35:13;;;;;;;2.88;1.25;;;;;;;;;;5009260;28;20022;-81
2022/08/24 05:37:42;;;;;;;3.42;1.17;;;;;;;;;;5009066;28;20033;-78
2022/08/24 05:40:10;;;;;;;3.22;1.40;;;;;;;;;;5009427;28;20034;-82
2022/08/24 05:42:38;;;;;;;3.22;1.02;;;;;;;;;;5009196;28;20083;-81
2022/08/24 05:45:05;;;;;;;4.55;1.42;;;;;;;;;;5008917;28;20030;-81
2022/08/24 05:47:33;;;;;;;4.43;1.27;;;;;;;;;;4991459;28;20401;-80
2022/08/24 05:49:59;;;;;;;3.92;1.60;;;;;;;;;;5009324;28;20880;-82
2022/08/24 05:52:26;;;;;;;7.07;1.50;;;;;;;;;;5008839;28;20034;-81
2022/08/24 05:54:53;;;;;;;8.32;1.50;;;;;;;;;;5008982;28;20060;-81
2022/08/24 05:57:19;;;;;;;4.75;1.58;;;;;;;;;;5009159;28;20137;-82
2022/08/24 05:59:45;;;;;;;5.03;1.60;;;;;;;;;;5008880;28;20026;-82
2022/08/24 06:02:10;;;;;;;4.47;1.60;;;;;;;;;;5008966;28;20036;-82
2022/08/24 06:04:37;;;;;;;6.47;1.85;;;;;;;;;;5008549;28;20596;-81
2022/08/24 06:07:03;;;;;;;4.38;1.65;;;;;;;;;;5008460;28;20082;-82
2022/08/24 06:09:29;;;;;;;6.30;1.63;;;;;;;;;;5009028;28;20501;-81
2022/08/24 06:11:54;;;;;;;5.43;1.80;;;;;;;;;;5008711;28;20030;-80
2022/08/24 06:14:20;;;;;;;3.95;1.55;;;;;;;;;;5009019;28;20065;-83
2022/08/24 06:16:46;;;;;;;6.47;1.67;;;;;;;;;;5008540;28;20022;-81
2022/08/24 06:19:14;;;;;;;4.72;1.67;;;;;;;;;;5008593;28;20026;-81
2022/08/24 06:21:42;;;;;;;4.60;1.60;;;;;;;;;;5008148;28;20090;-82
2022/08/24 06:24:07;;;;;;;7.25;2.30;;;;;;;;;;5008589;28;20018;-81
2022/08/24 06:29:19;;;;;;;5.30;1.80;;;;;;;;;;5008662;28;20056;-75
2022/08/24 06:31:47;;;;;;;2.95;1.42;;;;;;;;;;5008565;28;20576;-83
2022/08/24 06:34:15;;;;;;;6.32;1.58;;;;;;;;;;5008631;28;20026;-83
2022/08/24 06:36:41;;;;;;;5.45;1.60;;;;;;;;;;4990060;28;20033;-82
2022/08/24 06:39:07;;;;;;;2.70;1.45;;;;;;;;;;5007718;28;20038;-82
2022/08/24 06:41:34;;;;;;;6.55;1.45;;;;;;;;;;5008435;28;20057;-80
2022/08/24 06:43:59;;;;;;;4.18;1.70;;;;;;;;;;5008502;28;20528;-78
2022/08/24 06:46:25;;;;;;;7.68;1.80;;;;;;;;;;5008300;28;20057;-78
2022/08/24 06:48:52;;;;;;;5.03;1.45;;;;;;;;;;5008432;28;20493;-80
2022/08/24 06:51:21;;;;;;;4.18;1.40;;;;;;;;;;5007919;28;20128;-77
2022/08/24 06:53:47;;;;;;;4.60;1.52;;;;;;;;;;5008190;28;20165;-80
2022/08/24 06:56:13;;;;;;;2.33;1.30;;;;;;;;;;5008254;28;20544;-80
2022/08/24 06:58:39;;;;;;;3.47;1.40;;;;;;;;;;5008078;28;20591;-78
2022/08/24 07:01:20;;;;;;;4.38;1.45;;;;;;;;;;5008229;28;20026;-79
2022/08/24 07:03:46;;;;;;;4.25;1.38;;;;;;;;;;4990459;28;20030;-81
2022/08/24 07:06:13;;;;;;;2.90;1.25;;;;;;;;;;5007697;28;20053;-79
2022/08/24 07:08:41;;;;;;;5.07;1.20;;;;;;;;;;5007592;28;20034;-77
2022/08/24 07:11:08;;;;;;;8.07;1.60;;;;;;;;;;4990345;28;20118;-82
2022/08/24 07:13:33;;;;;;;2.90;1.10;;;;;;;;;;5007914;28;20026;-81
2022/08/24 07:15:59;;;;;;;4.20;2.33;;;;;;;;;;5007657;28;20033;-81
2022/08/24 07:18:25;;;;;;;3.85;1.27;;;;;;;;;;5007660;28;20057;-83
2022/08/24 07:20:51;;;;;;;2.75;1.30;;;;;;;;;;5007998;28;20117;-81
2022/08/24 07:23:18;;;;;;;3.72;1.20;;;;;;;;;;5007579;28;20516;-83
2022/08/24 07:25:45;;;;;;;3.05;1.38;;;;;;;;;;5007644;28;20026;-83
2022/08/24 07:28:11;;;;;;;5.80;1.25;;;;;;;;;;5007714;28;20038;-83
2022/08/24 07:30:38;;;;;;;5.75;1.38;;;;;;;;;;5007485;28;20025;-83
2022/08/24 07:33:03;;;;;;;4.35;1.45;;;;;;;;;;5007434;28;20034;-82
2022/08/24 07:35:31;;;;;;;4.45;1.38;;;;;;;;;;5007357;28;20421;-81
2022/08/24 07:37:57;;;;;;;5.90;1.40;;;;;;;;;;5007274;28;20026;-80
2022/08/24 07:40:24;;;;;;;3.95;1.40;;;;;;;;;;5007487;28;20037;-82
2022/08/24 07:42:52;;;;;;;4.53;1.50;;;;;;;;;;5007522;28;20105;-81
2022/08/24 07:45:18;;;;;;;5.68;1.65;;;;;;;;;;5007430;28;20247;-76
2022/08/24 07:47:44;;;;;;;7.25;1.63;;;;;;;;;;5007273;28;20033;-78
2022/08/24 07:50:13;;;;;;;5.30;1.50;;;;;;;;;;5007319;28;20026;-79
2022/08/24 07:52:39;;;;;;;6.90;1.30;;;;;;;;;;5006746;28;20109;-80
2022/08/24 07:55:05;;;;;;;3.35;1.45;;;;;;;;;;5007316;28;20118;-81
2022/08/24 07:57:31;;;;;;;5.38;1.60;;;;;;;;;;5007067;28;20508;-82
2022/08/24 08:00:00;;;;;;;5.47;1.38;;;;;;;;;;5007223;28;20026;-83
2022/08/24 08:02:26;;;;;;;8.50;1.60;;;;;;;;;;5007180;28;20056;-83
2022/08/24 08:04:54;;;;;;;8.20;1.60;;;;;;;;;;5006862;28;20461;-83
2022/08/24 08:07:20;;;;;;;8.20;1.75;;;;;;;;;;5006495;28;20018;-82
2022/08/24 08:09:45;;;;;;;6.32;1.73;;;;;;;;;;5006984;28;20071;-80
2022/08/24 08:12:11;;;;;;;6.40;1.90;;;;;;;;;;5007041;28;20030;-81
2022/08/24 08:14:37;;;;;;;6.72;1.70;;;;;;;;;;5007022;28;20028;-83
2022/08/24 08:17:03;;;;;;;5.47;1.70;;;;;;;;;;5006915;28;20026;-84
2022/08/24 08:19:29;;;;;;;4.22;1.60;;;;;;;;;;5007124;28;20033;-79
2022/08/24 08:24:43;;;;;;;6.18;1.50;;;;;;;;;;5006807;28;20025;-81
2022/08/24 08:27:10;;;;;;;5.15;1.50;;;;;;;;;;5006648;28;20025;-83
2022/08/24 08:29:40;;;;;;;3.35;1.20;;;;;;;;;;5006831;28;20523;-81
2022/08/24 08:32:08;;;;;;;4.78;1.40;;;;;;;;;;5006957;28;20138;-84
2022/08/24 08:34:34;;;;;;;7.13;1.38;;;;;;;;;;5006938;28;20068;-84
2022/08/24 08:37:01;;;;;;;3.42;1.08;;;;;;;;;;5006124;28;20022;-81
2022/08/24 08:39:27;;;;;;;3.53;1.40;;;;;;;;;;5006757;28;20022;-81
2022/08/24 08:42:20;;;;;;;3.03;1.20;;;;;;;;;;5006570;28;20082;-81
2022/08/24 08:45:10;;;;;;;2.78;1.05;;;;;;;;;;5006770;28;20040;-81
2022/08/24 08:47:58;;;;;;;6.45;1.10;;;;;;;;;;5006431;28;20022;-81
2022/08/24 08:50:30;;;;;;;3.22;1.15;;;;;;;;;;5006734;28;20115;-82
2022/08/24 08:52:56;;;;;;;2.63;1.00;;;;;;;;;;5006031;28;20044;-81
2022/08/24 08:55:46;;;;;;;3.45;1.20;;;;;;;;;;5006470;28;20037;-82
2022/08/24 08:58:11;;;;;;;;;;;;;;;;;;5006843;28;20034;-81
2022/08/24 09:01:05;;;;;;;4.07;0.90;;;;;;;;;;5006255;28;19917;-77
2022/08/24 09:04:04;;;;;;;2.40;1.10;;;;;;;;;;5008353;28;20067;-83
2022/08/24 09:06:45;;;;;;;3.15;1.00;;;;;;;;;;5009239;28;20050;-82
2022/08/24 09:09:38;;;;;;;2.17;1.00;;;;;;;;;;5009744;28;20396;-82
2022/08/24 09:12:26;;;;;;;2.17;1.15;;;;;;;;;;5009739;28;20037;-81
2022/08/24 09:15:28;;;;;;;4.10;0.90;;;;;;;;;;5009591;28;20042;-82
2022/08/24 09:18:08;;;;;;;3.35;1.10;;;;;;;;;;5009395;28;20064;-82
2022/08/24 09:21:08;;;;;;;2.15;1.00;;;;;;;;;;5009690;28;20091;-82
2022/08/24 09:23:46;;;;;;;4.30;1.08;;;;;;;;;;4998710;28;20041;-82
2022/08/24 09:26:28;;;;;;;4.45;1.20;;;;;;;;;;5009528;28;20040;-81
2022/08/24 09:29:15;;;;;;;3.90;1.17;;;;;;;;;;5009590;28;20044;-82
2022/08/24 09:32:02;;;;;;;2.65;0.90;;;;;;;;;;5009170;28;20149;-82
2022/08/24 09:34:35;;;;;;;1.55;1.00;;;;;;;;;;5009403;28;20034;-81
2022/08/24 09:37:31;;;;;;;4.70;1.08;;;;;;;;;;5008958;28;20034;-82
2022/08/24 09:40:16;;;;;;;1.52;1.15;;;;;;;;;;5009385;28;20030;-77
2022/08/24 09:43:27;;;;;;;1.85;0.80;;;;;;;;;;5008871;28;20038;-81
2022/08/24 09:46:17;;;;;;;2.70;0.80;;;;;;;;;;5008650;28;20112;-82
2022/08/24 09:48:45;;;;;;;3.17;0.80;;;;;;;;;;5008914;28;20034;-82
2022/08/24 09:51:31;;;;;;;2.80;0.98;;;;;;;;;;5009158;28;20041;-82
2022/08/24 09:54:33;;;;;;;1.02;0.70;;;;;;;;;;5009052;28;20038;-78
2022/08/24 09:57:20;;;;;;;2.72;0.90;;;;;;;;;;5008937;28;20493;-83
2022/08/24 09:59:58;;;;;;;1.67;0.80;;;;;;;;;;5009232;28;20042;-83
2022/08/24 10:02:44;;;;;;;2.05;0.80;;;;;;;;;;5009465;28;20548;-82
2022/08/24 10:05:50;;;;;;;2.47;0.90;;;;;;;;;;5008919;28;20050;-83
2022/08/24 10:08:21;;;;;;;4.60;0.90;;;;;;;;;;4997449;28;20427;-83
2022/08/24 10:11:08;;;;;;;1.50;0.80;;;;;;;;;;5008941;28;20057;-82
2022/08/24 10:13:53;;;;;;;1.55;0.77;;;;;;;;;;5008852;28;20060;-83
2022/08/24 10:16:21;;;;;;;3.17;0.73;;;;;;;;;;5008337;28;20109;-82
2022/08/24 10:19:05;;;;;;;0.73;0.65;;;;;;;;;;5008958;28;20048;-83
2022/08/24 10:21:48;;;;;;;3.95;0.65;;;;;;;;;;5008499;28;20037;-83
2022/08/24 10:24:32;;;;;;;1.13;0.70;;;;;;;;;;5008559;28;20432;-83
2022/08/24 10:27:05;;;;;;;3.10;0.85;;;;;;;;;;5008448;28;20090;-83
2022/08/24 10:30:05;;;;;;;2.40;0.80;;;;;;;;;;5008566;28;20105;-82
2022/08/24 10:32:39;;;;;;;1.15;0.70;;;;;;;;;;5008663;28;20062;-82
2022/08/24 10:35:11;;;;;;;2.45;0.80;;;;;;;;;;5008793;28;20053;-82
2022/08/24 10:37:42;;;;;;;5.35;0.80;;;;;;;;;;5008017;28;20044;-82
2022/08/24 10:40:39;;;;;;;2.40;0.90;;;;;;;;;;5008479;28;20026;-82
2022/08/24 10:43:33;;;;;;;3.08;0.80;;;;;;;;;;5008361;28;20631;-81
2022/08/24 10:46:28;;;;;;;0.80;0.70;;;;;;;;;;5008315;28;20075;-82
2022/08/24 10:48:59;;;;;;;1.73;0.60;;;;;;;;;;5007927;28;20053;-83
2022/08/24 10:51:49;;;;;;;2.63;0.70;;;;;;;;;;5007789;28;20026;-83
2022/08/24 10:54:18;;;;;;;2.08;0.75;;;;;;;;;;5008512;28;20026;-83
2022/08/24 10:57:21;;;;;;;3.08;0.80;;;;;;;;;;5007938;28;20033;-83
2022/08/24 11:00:05;;;;;;;1.80;0.65;;;;;;;;;;4994120;28;20046;-82
2022/08/24 11:02:39;;;;;;;2.00;0.60;;;;;;;;;;5008105;28;20477;-81
2022/08/24 11:05:07;;;;;;;1.42;0.82;;;;;;;;;;5007928;28;20045;-83
2022/08/24 11:07:35;;;;;;;2.00;0.82;;;;;;;;;;5007590;28;20097;-82
2022/08/24 11:10:05;;;;;;;2.33;0.80;;;;;;;;;;5007944;28;20021;-82
2022/08/24 11:12:30;;;;;;;;;;;;;;;;;;5008403;28;20091;-81
2022/08/24 11:14:59;;;;;;;1.85;0.73;;;;;;;;;;5007895;28;19917;-77
2022/08/24 11:17:28;;;;;;;0.95;0.60;;;;;;;;;;5007588;28;20032;-82
2022/08/24 11:19:55;;;;;;;1.75;0.57;;;;;;;;;;5007574;28;20374;-78
2022/08/24 11:22:58;;;;;;;2.83;0.70;;;;;;;;;;5007817;28;20034;-82
2022/08/24 11:25:28;;;;;;;2.00;0.80;;;;;;;;;;5007539;28;20026;-82
2022/08/24 11:28:04;;;;;;;1.52;0.70;;;;;;;;;;5007839;28;20022;-81
2022/08/24 11:30:30;;;;;;;2.45;0.68;;;;;;;;;;5007820;28;20045;-82
2022/08/24 11:33:00;;;;;;;5.50;0.73;;;;;;;;;;5007517;28;20037;-79
2022/08/24 11:35:31;;;;;;;0.90;0.70;;;;;;;;;;5007572;28;20030;-83
2022/08/24 11:38:18;;;;;;;1.17;0.70;;;;;;;;;;5007174;28;20080;-80
2022/08/24 11:40:52;;;;;;;1.48;0.70;;;;;;;;;;5007487;28;20065;-82
2022/08/24 11:43:35;;;;;;;2.35;0.75;;;;;;;;;;5007489;28;20044;-82
2022/08/24 11:46:06;;;;;;;1.38;0.90;;;;;;;;;;5007666;28;20057;-83
2022/08/24 11:49:09;;;;;;;1.95;0.80;;;;;;;;;;5007283;28;20026;-81
2022/08/24 11:52:10;;;;;;;2.63;0.85;;;;;;;;;;5006737;28;20068;-82
2022/08/24 11:54:51;;;;;;;2.40;0.73;;;;;;;;;;5006965;28;20523;-80
2022/08/24 11:57:30;;;;;;;2.63;1.10;;;;;;;;;;5006987;28;20079;-80
2022/08/24 12:00:04;;;;;;;5.95;0.90;;;;;;;;;;4989748;28;20086;-81
2022/08/24 12:03:06;;;;;;;3.00;0.80;;;;;;;;;;5007436;28;20521;-81
2022/08/24 12:05:51;;;;;;;1.30;0.80;;;;;;;;;;5006799;28;20062;-80
2022/08/24 12:08:41;;;;;;;3.72;0.73;;;;;;;;;;5006532;28;20029;-83
2022/08/24 12:11:20;;;;;;;3.15;0.80;;;;;;;;;;5006872;28;20034;-82
2022/08/24 12:13:56;;;;;;;1.67;0.80;;;;;;;;;;5007233;28;20045;-82
2022/08/24 12:16:32;;;;;;;1.45;0.80;;;;;;;;;;5006850;28;20030;-82
2022/08/24 12:19:33;;;;;;;2.15;0.80;;;;;;;;;;5006784;28;20033;-82
2022/08/24 12:22:04;;;;;;;2.47;0.80;;;;;;;;;;5006638;28;20113;-82
2022/08/24 12:24:45;;;;;;;4.43;0.80;;;;;;;;;;5006797;28;20059;-82
2022/08/24 12:27:19;;;;;;;2.13;0.90;;;;;;;;;;5006627;28;20044;-81
2022/08/24 12:30:01;;;;;;;3.17;0.90;;;;;;;;;;5006805;28;20030;-82
2022/08/24 12:32:36;;;;;;;2.50;0.90;;;;;;;;;;5006696;28;20072;-82
2022/08/24 12:35:04;;;;;;;1.00;0.80;;;;;;;;;;5007013;28;20083;-79
2022/08/24 12:37:42;;;;;;;1.60;0.77;;;;;;;;;;5005453;28;20026;-83
2022/08/24 12:40:27;;;;;;;4.70;0.90;;;;;;;;;;5006789;28;20517;-83
2022/08/24 12:43:26;;;;;;;2.92;0.77;;;;;;;;;;4989146;28;20409;-82
2022/08/24 12:45:55;;;;;;;1.23;0.73;;;;;;;;;;5006308;28;20117;-83
2022/08/24 12:48:36;;;;;;;3.47;0.95;;;;;;;;;;5006470;28;20122;-82
2022/08/24 12:51:39;;;;;;;2.90;1.00;;;;;;;;;;5006658;28;20033;-82
2022/08/24 12:54:38;;;;;;;4.45;2.25;;;;;;;;;;5006666;28;20026;-82
2022/08/24 12:57:06;;;;;;;2.85;1.27;;;;;;;;;;5006460;28;20083;-83
2022/08/24 12:59:49;;;;;;;1.85;0.98;;;;;;;;;;5006711;28;20026;-83
2022/08/24 13:02:17;;;;;;;1.77;0.80;;;;;;;;;;5006316;28;20140;-83
2022/08/24 13:04:48;;;;;;;3.72;0.80;;;;;;;;;;5006297;28;20026;-82
2022/08/24 13:07:20;;;;;;;2.38;0.90;;;;;;;;;;5005843;28;20064;-82
2022/08/24 13:10:13;;;;;;;0.85;0.60;;;;;;;;;;4988800;28;20520;-82
2022/08/24 13:12:40;;;;;;;1.15;0.60;;;;;;;;;;5005835;28;20087;-81
2022/08/24 13:15:24;;;;;;;5.15;0.82;;;;;;;;;;5006555;28;20038;-82
2022/08/24 13:18:06;;;;;;;3.30;1.30;;;;;;;;;;5006002;28;20028;-82
2022/08/24 13:20:37;;;;;;;3.85;0.90;;;;;;;;;;5006045;28;20037;-81
2022/08/24 13:23:11;;;;;;;3.58;0.98;;;;;;;;;;5005806;28;20050;-83
2022/08/24 13:25:46;;;;;;;1.50;0.80;;;;;;;;;;5006003;28;20026;-82
2022/08/24 13:28:20;;;;;;;2.60;0.80;;;;;;;;;;5006040;28;20041;-82
2022/08/24 13:30:55;;;;;;;1.80;0.80;;;;;;;;;;5006056;28;20030;-83
2022/08/24 13:33:42;;;;;;;3.13;0.70;;;;;;;;;;5006000;28;20045;-83
2022/08/24 13:36:31;;;;;;;1.08;0.70;;;;;;;;;;5006013;28;20034;-82
2022/08/24 13:39:23;;;;;;;4.47;0.73;;;;;;;;;;5005603;28;20026;-81
2022/08/24 13:42:01;;;;;;;3.33;0.60;;;;;;;;;;5005842;28;20577;-82
2022/08/24 13:44:31;;;;;;;1.20;0.80;;;;;;;;;;5006054;28;20068;-82
2022/08/24 13:47:54;;;;;;;1.10;0.80;;;;;;;;;;4988384;28;20030;-82
2022/08/24 13:50:42;;;;;;;2.55;0.80;;;;;;;;;;5009236;28;20508;-82
2022/08/24 13:53:48;;;;;;;1.52;0.73;;;;;;;;;;5009029;28;20038;-73
2022/08/24 13:56:22;;;;;;;2.17;0.70;;;;;;;;;;5008847;28;20037;-81
2022/08/24 13:58:48;;;;;;;2.38;0.80;;;;;;;;;;5008826;28;20030;-79
2022/08/24 14:01:25;;;;;;;2.67;0.90;;;;;;;;;;5009113;28;20368;-82
2022/08/24 14:03:59;;;;;;;3.10;0.70;;;;;;;;;;5009056;28;20022;-82
2022/08/24 14:06:48;;;;;;;0.75;0.60;;;;;;;;;;5008504;28;20052;-82
2022/08/24 14:09:26;;;;;;;2.75;0.70;;;;;;;;;;5008990;28;20654;-85
2022/08/24 14:12:37;;;;;;;1.25;0.60;;;;;;;;;;5008600;28;20132;-81
2022/08/24 14:15:09;;;;;;;0.93;0.70;;;;;;;;;;5008708;28;20026;-82
2022/08/24 14:17:51;;;;;;;1.58;0.50;;;;;;;;;;5008489;28;20033;-82
2022/08/24 14:20:55;;;;;;;2.70;0.80;;;;;;;;;;5008757;28;20037;-82
2022/08/24 14:23:46;;;;;;;2.17;0.60;;;;;;;;;;5008473;28;20021;-83
2022/08/24 14:26:30;;;;;;;;;;;;;;;;;;5009323;28;20037;-83
2022/08/24 14:29:16;;;;;;;1.75;0.60;;;;;;;;;;5008317;28;19914;-76
2022/08/24 14:31:57;;;;;;;1.60;0.65;;;;;;;;;;5008272;28;20593;-77
2022/08/24 14:34:49;;;;;;;1.23;0.60;;;;;;;;;;5008530;28;20034;-76
2022/08/24 14:37:19;;;;;;;1.02;0.50;;;;;;;;;;5008123;28;20053;-76
2022/08/24 14:39:57;;;;;;;2.75;0.60;;;;;;;;;;5008422;28;20034;-79
2022/08/24 14:42:56;;;;;;;2.20;0.60;;;;;;;;;;5008515;28;20130;-76
2022/08/24 14:45:48;;;;;;;2.72;0.70;;;;;;;;;;5008577;28;20041;-79
2022/08/24 14:48:28;;;;;;;0.60;0.50;;;;;;;;;;5008056;28;20038;-75
2022/08/24 14:51:28;;;;;;;2.17;0.60;;;;;;;;;;5008268;28;20079;-74
2022/08/24 14:54:00;;;;;;;0.80;0.50;;;;;;;;;;5008219;28;20110;-74
2022/08/24 14:57:03;;;;;;;1.52;0.60;;;;;;;;;;5008280;28;20500;-75
2022/08/24 14:59:54;;;;;;;2.25;0.68;;;;;;;;;;5008210;28;20061;-74
2022/08/24 15:02:28;;;;;;;1.13;0.60;;;;;;;;;;5007919;28;20025;-74
2022/08/24 15:05:28;;;;;;;1.85;0.50;;;;;;;;;;5007641;28;20044;-79
2022/08/24 15:08:04;;;;;;;1.17;0.50;;;;;;;;;;5007523;28;20564;-83
2022/08/24 15:10:48;;;;;;;0.32;0.32;;;;;;;;;;5007804;28;20038;-82
2022/08/24 15:13:45;;;;;;;2.75;0.50;;;;;;;;;;5007921;28;20439;-80
2022/08/24 15:16:15;;;;;;;0.95;0.50;;;;;;;;;;5008039;28;20033;-83
2022/08/24 15:19:06;;;;;;;1.40;0.50;;;;;;;;;;5007538;28;20057;-80
2022/08/24 15:21:40;;;;;;;1.30;0.52;;;;;;;;;;5007490;28;20040;-81
2022/08/24 15:24:33;;;;;;;2.22;0.60;;;;;;;;;;5007761;28;20026;-83
2022/08/24 15:27:29;;;;;;;1.13;0.70;;;;;;;;;;5007789;28;20552;-83
2022/08/24 15:29:58;;;;;;;0.93;0.60;;;;;;;;;;5007344;28;20105;-82
2022/08/24 15:32:38;;;;;;;1.55;0.55;;;;;;;;;;5007526;28;20086;-83